OIAM  Mahshahr Airport

Add Bookmark

Iran

Status IATA
Operational MRX
Latitude Longitude
30° 33' 22" N 49° 9' 6" E
30.556200 49.151901
Local (DST + 5) UTC (GMT + 4)
Jan 27, 2015 03:52 Jan 27, 2015 12:22
Sunrise-Sunset Local UTC
Begin Civil Twilight 06:40 03:10
Sunrise 07:05 03:35
Sunset 05:46 14:16
End Civil Twilight 06:11 14:41

Current Weather

METAR Observed MVFR
OIAM 271200Z 14010KT 7000 SCT040 22/11 Q1017 Tue, Jan 27, 2015 @ 12:00 UTC
(22 Minutes ago)
Marginal Visual Flight Rules
Wind Visibility Clouds Conditions
140° at 10 knots (19 kph) 7000 meters
  • Scattered at 4,000' AGL
  • No significant weather
Temperatures Readings Precipitation
Current Temp 22°C (72°F)
Dewpoint 11°C (52°F)
Humidity 50%
Altimeter 30.03"Hg
Sea Level Pressure 1017mb
Field Elevation 13.12'
None Recorded

Additional weather within a 92.6km radius of OIAM

Map ICAO Location
OIAG 54.4km E (067°)
OIAA 90.7km W (257°)

24 Hour Weather History

Loading
-

24 Hour Weather Graphs

Loading
-

CheckWX.com is intended as a tool to help pilots better visualize weather data. It is not intended as a substitute for an official weather briefing obtained from a Flight Service Station. CheckWX.com does not meet the FAA requirements for an official pre-flight weather briefing. Therefore, it's important that pilots still call and obtain an official FSS pre-flight weather briefing.